createdAt,value
2023-05-05T00:01:58.727Z,11.28
2023-05-05T00:04:49.325Z,11.27
2023-05-05T00:07:42.367Z,11.27
2023-05-05T00:10:36.864Z,11.26
2023-05-05T00:13:30.831Z,11.27
2023-05-05T00:16:23.513Z,11.28
2023-05-05T00:19:18.924Z,11.30
2023-05-05T00:22:10.122Z,11.31
2023-05-05T00:25:13.077Z,11.29
2023-05-05T00:28:03.699Z,11.28
2023-05-05T00:30:56.856Z,11.27
2023-05-05T00:33:47.458Z,11.26
2023-05-05T00:36:38.129Z,11.28
2023-05-05T00:39:30.906Z,11.31
2023-05-05T00:42:21.496Z,11.30
2023-05-05T00:45:13.638Z,11.27
2023-05-05T00:48:05.193Z,11.25
2023-05-05T00:51:06.616Z,11.23
2023-05-05T00:54:00.639Z,11.23
2023-05-05T00:56:51.469Z,11.24
2023-05-05T00:59:42.265Z,11.29
2023-05-05T01:02:35.651Z,11.35
2023-05-05T01:05:27.527Z,11.39
2023-05-05T01:08:28.765Z,11.40
2023-05-05T01:11:33.881Z,11.37
2023-05-05T01:14:39.800Z,11.37
2023-05-05T01:17:35.082Z,11.37
2023-05-05T01:20:30.597Z,11.37
2023-05-05T01:23:30.305Z,11.36
2023-05-05T01:26:43.092Z,11.37
2023-05-05T01:29:39.745Z,11.36
2023-05-05T01:32:33.195Z,11.35
2023-05-05T01:35:27.995Z,11.33
2023-05-05T01:38:22.985Z,11.30
2023-05-05T01:41:16.159Z,11.28
2023-05-05T01:44:11.004Z,11.25
2023-05-05T01:47:05.973Z,11.24
2023-05-05T01:49:56.613Z,11.21
2023-05-05T01:53:01.261Z,11.19
2023-05-05T01:55:53.185Z,11.18
2023-05-05T01:58:47.510Z,11.16
2023-05-05T02:01:41.726Z,11.12
2023-05-05T02:04:33.923Z,11.10
2023-05-05T02:07:28.912Z,11.07
2023-05-05T02:10:29.364Z,11.06
2023-05-05T02:13:23.206Z,11.03
2023-05-05T02:16:19.198Z,11.01
2023-05-05T02:19:22.797Z,10.99
2023-05-05T02:22:15.637Z,10.97
2023-05-05T02:25:09.960Z,10.96
2023-05-05T02:28:02.034Z,10.96
2023-05-05T02:30:57.081Z,10.96
2023-05-05T02:33:51.535Z,10.96
2023-05-05T02:36:53.573Z,10.96
2023-05-05T02:39:59.743Z,10.95
2023-05-05T02:42:55.309Z,10.96
2023-05-05T02:45:50.635Z,10.98
2023-05-05T02:48:44.970Z,10.98
2023-05-05T02:51:45.002Z,10.99
2023-05-05T02:54:43.762Z,10.99
2023-05-05T02:57:58.806Z,10.97
2023-05-05T03:00:57.065Z,10.95
2023-05-05T03:03:48.705Z,10.94
2023-05-05T03:06:43.096Z,10.93
2023-05-05T03:09:46.116Z,10.91
2023-05-05T03:12:45.522Z,10.90
2023-05-05T03:15:45.354Z,10.89
2023-05-05T03:18:39.549Z,10.88
2023-05-05T03:21:30.550Z,10.88
2023-05-05T03:24:21.999Z,10.89
2023-05-05T03:27:21.781Z,10.91
2023-05-05T03:30:16.096Z,10.94
2023-05-05T03:33:21.257Z,10.97
2023-05-05T03:36:11.991Z,10.99
2023-05-05T03:39:05.248Z,11.02
2023-05-05T03:41:57.420Z,11.05
2023-05-05T03:44:49.364Z,11.06
2023-05-05T03:47:40.662Z,11.07
2023-05-05T03:50:35.107Z,11.07
2023-05-05T03:53:26.650Z,11.08
2023-05-05T03:56:18.462Z,11.06
2023-05-05T03:59:29.351Z,11.03
2023-05-05T04:02:40.194Z,11.01
2023-05-05T04:05:31.739Z,11.02
2023-05-05T04:08:24.201Z,11.03
2023-05-05T04:11:15.015Z,11.05
2023-05-05T04:14:06.004Z,11.07
2023-05-05T04:16:56.926Z,11.10
2023-05-05T04:19:57.533Z,11.13
2023-05-05T04:22:49.398Z,11.16
2023-05-05T04:25:53.091Z,11.17
2023-05-05T04:28:44.315Z,11.17
2023-05-05T04:31:35.473Z,11.17
2023-05-05T04:34:32.215Z,11.17
2023-05-05T04:37:28.834Z,11.16
2023-05-05T04:40:20.629Z,11.14
2023-05-05T04:43:21.220Z,11.14
2023-05-05T04:46:15.311Z,11.12
2023-05-05T04:49:06.144Z,11.13
2023-05-05T04:51:59.473Z,11.15
2023-05-05T04:54:54.109Z,11.18
2023-05-05T04:58:06.487Z,11.19
2023-05-05T05:01:20.369Z,11.20
2023-05-05T05:04:28.439Z,11.19
2023-05-05T05:07:25.981Z,11.18
2023-05-05T05:10:28.730Z,11.17
2023-05-05T05:13:39.818Z,11.18
2023-05-05T05:16:36.663Z,11.20
2023-05-05T05:19:35.021Z,11.23
2023-05-05T05:22:29.318Z,11.26
2023-05-05T05:25:25.399Z,11.27
2023-05-05T05:28:16.698Z,11.29
2023-05-05T05:31:14.267Z,11.30
2023-05-05T05:34:05.275Z,11.31
2023-05-05T05:37:03.864Z,11.32
2023-05-05T05:39:57.203Z,11.32
2023-05-05T05:42:51.162Z,11.34
2023-05-05T05:45:45.566Z,11.37
2023-05-05T05:48:36.410Z,11.41
2023-05-05T05:51:28.127Z,11.46
2023-05-05T05:54:18.913Z,11.51
2023-05-05T05:57:10.293Z,11.57
2023-05-05T06:00:01.957Z,11.64
2023-05-05T06:03:02.646Z,11.71
2023-05-05T06:06:05.364Z,11.80
2023-05-05T06:08:58.472Z,11.87
2023-05-05T06:12:08.135Z,11.94
2023-05-05T06:15:04.297Z,12.01
2023-05-05T06:17:58.321Z,12.10
2023-05-05T06:20:52.491Z,12.18
2023-05-05T06:23:52.559Z,12.24
2023-05-05T06:26:43.787Z,12.31
2023-05-05T06:29:34.725Z,12.36
2023-05-05T06:32:26.117Z,12.41
2023-05-05T06:35:17.408Z,12.46
2023-05-05T06:38:08.121Z,12.53
2023-05-05T06:40:58.765Z,12.60
2023-05-05T06:43:52.457Z,12.69
2023-05-05T06:46:45.584Z,12.85
2023-05-05T06:49:39.050Z,13.08
2023-05-05T06:52:29.905Z,13.30
2023-05-05T06:55:25.164Z,13.47
2023-05-05T06:58:15.849Z,13.54
2023-05-05T07:01:07.270Z,13.58
2023-05-05T07:03:58.210Z,13.60
2023-05-05T07:06:48.802Z,13.63
2023-05-05T07:09:39.433Z,13.66
2023-05-05T07:12:30.970Z,13.69
2023-05-05T07:15:29.903Z,13.74
2023-05-05T07:18:21.710Z,13.76
2023-05-05T07:21:12.784Z,13.77
2023-05-05T07:24:03.648Z,13.78
2023-05-05T07:26:54.432Z,13.82
2023-05-05T07:29:45.197Z,13.90
2023-05-05T07:32:36.034Z,14.06
2023-05-05T07:35:26.599Z,14.41
2023-05-05T07:38:17.373Z,15.04
2023-05-05T07:41:08.284Z,15.75
2023-05-05T07:43:58.798Z,16.38
2023-05-05T07:46:49.373Z,16.90
2023-05-05T07:49:40.448Z,17.40
2023-05-05T07:52:44.944Z,17.98
2023-05-05T07:55:40.405Z,18.61
2023-05-05T07:58:31.088Z,19.12
2023-05-05T08:01:21.855Z,19.46
2023-05-05T08:04:12.357Z,19.87
2023-05-05T08:07:02.919Z,20.41
2023-05-05T08:09:53.827Z,20.96
2023-05-05T08:12:44.305Z,21.52
2023-05-05T08:15:34.792Z,22.17
2023-05-05T08:18:25.133Z,21.95
2023-05-05T08:21:15.648Z,21.07
2023-05-05T08:24:06.136Z,20.47
2023-05-05T08:26:57.855Z,19.82
2023-05-05T08:29:48.403Z,19.17
2023-05-05T08:32:39.585Z,18.74
2023-05-05T08:35:30.102Z,18.36
2023-05-05T08:38:20.587Z,18.06
2023-05-05T08:41:14.338Z,17.75
2023-05-05T08:44:04.996Z,17.43
2023-05-05T08:46:56.156Z,17.23
2023-05-05T08:49:47.665Z,17.16
2023-05-05T08:52:53.145Z,17.24
2023-05-05T08:55:47.576Z,17.25
2023-05-05T08:58:40.724Z,17.20
2023-05-05T09:01:33.600Z,17.21
2023-05-05T09:04:24.257Z,17.10
2023-05-05T09:07:14.899Z,17.07
2023-05-05T09:10:06.530Z,17.30
2023-05-05T09:12:58.718Z,17.73
2023-05-05T09:15:49.330Z,18.68
2023-05-05T09:18:41.221Z,19.43
2023-05-05T09:21:32.495Z,19.42
2023-05-05T09:24:23.205Z,20.04
2023-05-05T09:27:23.730Z,20.26
2023-05-05T09:30:16.104Z,20.02
2023-05-05T09:33:06.805Z,19.61
2023-05-05T09:35:57.569Z,19.24
2023-05-05T09:39:04.871Z,18.87
2023-05-05T09:41:55.563Z,18.54
2023-05-05T09:44:46.075Z,18.36
2023-05-05T09:47:37.373Z,18.18
2023-05-05T09:50:30.887Z,18.14
2023-05-05T09:53:21.436Z,18.23
2023-05-05T09:56:12.065Z,19.64
2023-05-05T09:59:11.985Z,22.13
2023-05-05T10:02:12.984Z,22.51
2023-05-05T10:05:10.530Z,22.43
2023-05-05T10:08:12.937Z,21.72
2023-05-05T10:11:06.521Z,21.49
2023-05-05T10:13:57.174Z,21.84
2023-05-05T10:16:50.934Z,22.83
2023-05-05T10:19:41.790Z,25.17
2023-05-05T10:22:35.396Z,26.88
2023-05-05T10:25:31.216Z,27.87
2023-05-05T10:28:24.636Z,28.12
2023-05-05T10:31:25.748Z,26.48
2023-05-05T10:34:22.491Z,25.68
2023-05-05T10:37:12.790Z,26.28
2023-05-05T10:40:03.675Z,27.71
2023-05-05T10:42:55.518Z,29.34
2023-05-05T10:45:46.332Z,30.79
2023-05-05T10:48:43.869Z,31.86
2023-05-05T10:51:42.440Z,31.00
2023-05-05T10:54:37.847Z,29.01
2023-05-05T10:57:30.071Z,27.34
2023-05-05T11:00:38.276Z,25.88
2023-05-05T11:03:29.151Z,24.83
2023-05-05T11:06:19.848Z,23.92
2023-05-05T11:09:23.790Z,23.18
2023-05-05T11:12:16.141Z,22.50
2023-05-05T11:15:26.242Z,22.27
2023-05-05T11:18:39.195Z,22.13
2023-05-05T11:21:29.631Z,22.42
2023-05-05T11:24:29.594Z,22.69
2023-05-05T11:27:19.929Z,23.23
2023-05-05T11:30:12.343Z,25.40
2023-05-05T11:33:20.354Z,27.36
2023-05-05T11:36:11.781Z,27.49
2023-05-05T11:39:20.499Z,27.90
2023-05-05T11:42:19.214Z,29.11
2023-05-05T11:45:23.307Z,29.36
2023-05-05T11:48:28.741Z,28.02
2023-05-05T11:51:19.860Z,26.85
2023-05-05T11:54:10.303Z,27.01
2023-05-05T11:57:02.153Z,29.13
2023-05-05T11:59:54.945Z,31.21
2023-05-05T12:02:46.359Z,33.48
2023-05-05T12:05:37.274Z,33.87
2023-05-05T12:08:28.612Z,32.46
2023-05-05T12:11:21.901Z,32.80
2023-05-05T12:14:12.930Z,33.11
2023-05-05T12:17:08.393Z,32.02
2023-05-05T12:19:59.024Z,32.15
2023-05-05T12:22:49.774Z,31.15
2023-05-05T12:25:41.180Z,30.93
2023-05-05T12:28:43.826Z,30.47
2023-05-05T12:31:38.270Z,29.46
2023-05-05T12:34:28.786Z,29.09
2023-05-05T12:37:20.291Z,30.01
2023-05-05T12:40:31.429Z,31.37
2023-05-05T12:43:29.031Z,32.51
2023-05-05T12:46:19.513Z,33.47
2023-05-05T12:49:10.417Z,34.43
2023-05-05T12:52:01.575Z,35.36
2023-05-05T12:54:56.308Z,36.17
2023-05-05T12:58:04.787Z,36.19
2023-05-05T13:01:08.492Z,35.76
2023-05-05T13:04:13.063Z,35.63
2023-05-05T13:07:13.505Z,35.29
2023-05-05T13:10:11.331Z,34.42
2023-05-05T13:13:02.603Z,34.93
2023-05-05T13:15:53.413Z,35.04
2023-05-05T13:18:47.397Z,34.85
2023-05-05T13:21:38.075Z,34.64
2023-05-05T13:24:42.388Z,34.03
2023-05-05T13:27:39.172Z,33.35
2023-05-05T13:30:29.923Z,32.75
2023-05-05T13:33:20.362Z,32.23
2023-05-05T13:36:11.347Z,32.47
2023-05-05T13:39:02.088Z,32.11
2023-05-05T13:41:52.681Z,32.44
2023-05-05T13:44:43.272Z,32.85
2023-05-05T13:47:33.880Z,33.15
2023-05-05T13:50:24.635Z,33.19
2023-05-05T13:53:15.230Z,33.03
2023-05-05T13:56:06.009Z,32.43
2023-05-05T13:58:56.644Z,31.29
2023-05-05T14:01:47.115Z,30.90
2023-05-05T14:04:37.632Z,29.23
2023-05-05T14:07:28.366Z,27.90
2023-05-05T14:10:19.117Z,27.10
2023-05-05T14:13:09.694Z,26.12
2023-05-05T14:16:00.374Z,26.36
2023-05-05T14:18:51.041Z,27.17
2023-05-05T14:21:41.575Z,27.13
2023-05-05T14:24:32.110Z,27.71
2023-05-05T14:27:22.846Z,28.39
2023-05-05T14:30:14.088Z,28.68
2023-05-05T14:33:04.727Z,28.74
2023-05-05T14:35:55.256Z,28.60
2023-05-05T14:38:45.924Z,28.31
2023-05-05T14:41:36.511Z,27.96
2023-05-05T14:44:27.402Z,27.64
2023-05-05T14:47:17.944Z,26.94
2023-05-05T14:50:09.996Z,26.34
2023-05-05T14:53:00.770Z,26.23
2023-05-05T14:55:51.402Z,25.70
2023-05-05T14:58:41.981Z,25.13
2023-05-05T15:01:32.568Z,25.26
2023-05-05T15:04:23.114Z,25.27
2023-05-05T15:07:13.540Z,25.08
2023-05-05T15:10:05.005Z,25.17
2023-05-05T15:12:56.214Z,25.15
2023-05-05T15:15:46.698Z,24.58
2023-05-05T15:18:37.642Z,24.11
2023-05-05T15:21:28.486Z,23.85
2023-05-05T15:24:18.955Z,23.75
2023-05-05T15:27:09.588Z,23.58
2023-05-05T15:30:00.059Z,23.39
2023-05-05T15:32:51.329Z,23.41
2023-05-05T15:35:41.828Z,23.43
2023-05-05T15:38:32.320Z,23.49
2023-05-05T15:41:22.953Z,23.47
2023-05-05T15:44:14.283Z,23.49
2023-05-05T15:47:04.955Z,23.49
2023-05-05T15:49:55.508Z,23.35
2023-05-05T15:52:48.059Z,23.00
2023-05-05T15:55:40.468Z,22.73
2023-05-05T15:58:30.989Z,22.45
2023-05-05T16:01:21.774Z,22.19
2023-05-05T16:04:12.677Z,22.20
2023-05-05T16:07:04.265Z,22.17
2023-05-05T16:09:54.707Z,22.28
2023-05-05T16:12:45.231Z,22.35
2023-05-05T16:15:35.914Z,22.27
2023-05-05T16:18:26.893Z,22.13
2023-05-05T16:21:18.161Z,21.87
2023-05-05T16:24:09.456Z,21.55
2023-05-05T16:27:00.279Z,21.24
2023-05-05T16:29:51.219Z,21.10
2023-05-05T16:32:41.981Z,21.08
2023-05-05T16:35:32.559Z,21.11
2023-05-05T16:38:23.172Z,21.12
2023-05-05T16:41:14.003Z,21.15
2023-05-05T16:44:04.642Z,21.18
2023-05-05T16:46:55.293Z,21.21
2023-05-05T16:49:45.841Z,21.29
2023-05-05T16:52:37.191Z,21.27
2023-05-05T16:55:27.747Z,21.27
2023-05-05T16:58:19.911Z,21.29
2023-05-05T17:01:10.861Z,21.40
2023-05-05T17:04:02.691Z,21.46
2023-05-05T17:06:55.076Z,21.35
2023-05-05T17:09:45.669Z,21.15
2023-05-05T17:12:36.245Z,21.03
2023-05-05T17:15:27.284Z,20.87
2023-05-05T17:18:20.256Z,20.73
2023-05-05T17:21:10.383Z,20.62
2023-05-05T17:24:01.508Z,20.46
2023-05-05T17:26:52.534Z,20.32
2023-05-05T17:29:43.506Z,20.19
2023-05-05T17:32:34.034Z,20.09
2023-05-05T17:35:24.552Z,19.90
2023-05-05T17:38:14.987Z,19.78
2023-05-05T17:41:06.739Z,19.73
2023-05-05T17:43:57.481Z,19.72
2023-05-05T17:46:48.241Z,19.72
2023-05-05T17:49:38.719Z,19.76
2023-05-05T17:52:29.271Z,19.76
2023-05-05T17:55:19.906Z,19.75
2023-05-05T17:58:10.644Z,19.72
2023-05-05T18:01:01.224Z,19.68
2023-05-05T18:03:51.930Z,19.66
2023-05-05T18:06:42.495Z,19.60
2023-05-05T18:09:33.001Z,19.58
2023-05-05T18:12:23.639Z,19.54
2023-05-05T18:15:14.420Z,19.47
2023-05-05T18:18:05.206Z,19.42
2023-05-05T18:20:55.766Z,19.34
2023-05-05T18:23:49.893Z,19.26
2023-05-05T18:26:41.502Z,19.24
2023-05-05T18:29:32.194Z,19.17
2023-05-05T18:32:23.988Z,19.12
2023-05-05T18:35:14.635Z,19.03
2023-05-05T18:38:05.537Z,18.88
2023-05-05T18:40:55.869Z,18.73
2023-05-05T18:43:46.350Z,18.60
2023-05-05T18:46:36.897Z,18.43
2023-05-05T18:49:29.572Z,18.30
2023-05-05T18:52:21.962Z,18.24
2023-05-05T18:55:12.630Z,18.14
2023-05-05T18:58:03.155Z,18.06
2023-05-05T19:00:53.767Z,17.97
2023-05-05T19:03:48.043Z,17.87
2023-05-05T19:06:38.987Z,17.75
2023-05-05T19:09:29.645Z,17.56
2023-05-05T19:12:20.087Z,17.40
2023-05-05T19:15:13.500Z,17.28
2023-05-05T19:18:05.783Z,17.21
2023-05-05T19:20:56.474Z,17.13
2023-05-05T19:23:47.014Z,17.07
2023-05-05T19:26:37.510Z,17.00
2023-05-05T19:29:28.058Z,16.92
2023-05-05T19:32:18.899Z,16.83
2023-05-05T19:35:10.781Z,16.73
2023-05-05T19:38:01.184Z,16.65
2023-05-05T19:40:51.729Z,16.59
2023-05-05T19:43:42.238Z,16.50
2023-05-05T19:46:32.934Z,16.43
2023-05-05T19:49:23.591Z,16.36
2023-05-05T19:52:13.977Z,16.29
2023-05-05T19:55:04.531Z,16.19
2023-05-05T19:57:54.980Z,16.12
2023-05-05T20:00:45.264Z,16.08
2023-05-05T20:03:36.417Z,16.02
2023-05-05T20:06:28.000Z,15.94
2023-05-05T20:09:19.024Z,15.89
2023-05-05T20:12:09.795Z,15.80
2023-05-05T20:15:00.282Z,15.71
2023-05-05T20:17:51.106Z,15.65
2023-05-05T20:20:41.623Z,15.56
2023-05-05T20:23:35.136Z,15.50
2023-05-05T20:26:35.024Z,15.44
2023-05-05T20:29:25.505Z,15.38
2023-05-05T20:32:17.541Z,15.33
2023-05-05T20:35:08.926Z,15.28
2023-05-05T20:37:59.490Z,15.24
2023-05-05T20:40:50.636Z,15.20
2023-05-05T20:43:41.173Z,15.16
2023-05-05T20:46:31.834Z,15.13
2023-05-05T20:49:22.480Z,15.12
2023-05-05T20:52:12.953Z,15.11
2023-05-05T20:55:03.694Z,15.07
2023-05-05T20:57:54.557Z,15.06
2023-05-05T21:00:48.271Z,15.06
2023-05-05T21:03:40.977Z,15.06
2023-05-05T21:06:33.204Z,15.04
2023-05-05T21:09:24.212Z,15.03
2023-05-05T21:12:14.764Z,15.02
2023-05-05T21:15:05.721Z,15.01
2023-05-05T21:17:57.288Z,15.00
2023-05-05T21:20:51.114Z,14.99
2023-05-05T21:23:47.297Z,14.98
2023-05-05T21:26:37.864Z,14.96
2023-05-05T21:29:28.421Z,14.95
2023-05-05T21:32:19.054Z,14.93
2023-05-05T21:35:12.150Z,14.91
2023-05-05T21:38:03.133Z,14.88
2023-05-05T21:40:58.648Z,14.85
2023-05-05T21:43:49.482Z,14.81
2023-05-05T21:46:40.886Z,14.79
2023-05-05T21:49:31.672Z,14.77
2023-05-05T21:52:25.230Z,14.75
2023-05-05T21:55:15.756Z,14.73
2023-05-05T21:58:06.454Z,14.73
2023-05-05T22:00:57.013Z,14.72
2023-05-05T22:03:47.792Z,14.71
2023-05-05T22:06:38.639Z,14.69
2023-05-05T22:09:29.443Z,14.66
2023-05-05T22:12:20.057Z,14.66
2023-05-05T22:15:11.707Z,14.65
2023-05-05T22:18:02.465Z,14.65
2023-05-05T22:20:54.094Z,14.65
2023-05-05T22:23:44.603Z,14.64
2023-05-05T22:26:40.129Z,14.61
2023-05-05T22:29:30.754Z,14.58
2023-05-05T22:32:21.599Z,14.56
2023-05-05T22:35:12.613Z,14.54
2023-05-05T22:38:03.097Z,14.51
2023-05-05T22:40:53.798Z,14.45
2023-05-05T22:43:44.374Z,14.38
2023-05-05T22:46:35.157Z,14.33
2023-05-05T22:49:26.809Z,14.29
2023-05-05T22:52:18.154Z,14.26
2023-05-05T22:55:09.560Z,14.24
2023-05-05T22:58:00.596Z,14.23
2023-05-05T23:00:51.208Z,14.20
2023-05-05T23:03:42.060Z,14.20
2023-05-05T23:06:32.648Z,14.17
2023-05-05T23:09:23.286Z,14.15
2023-05-05T23:12:13.840Z,14.13
2023-05-05T23:15:08.209Z,14.10
2023-05-05T23:17:59.074Z,14.07
2023-05-05T23:20:49.595Z,14.05
2023-05-05T23:23:40.139Z,14.02
2023-05-05T23:26:30.790Z,14.00
2023-05-05T23:29:21.927Z,13.97
2023-05-05T23:32:12.463Z,13.94
2023-05-05T23:35:03.122Z,13.91
2023-05-05T23:37:53.824Z,13.88
2023-05-05T23:40:44.390Z,13.86
2023-05-05T23:43:34.967Z,13.85
2023-05-05T23:46:25.525Z,13.84
2023-05-05T23:49:16.041Z,13.84
2023-05-05T23:52:06.697Z,13.83
2023-05-05T23:54:57.592Z,13.82
2023-05-05T23:57:48.109Z,13.80
